Umatac, Guam
Current Conditions -  °F | °C
As of 5:54 PM on Friday 31 Oct 2014 (Local Time) from PGUM Reporting Station
Scattered Clouds Scattered Clouds  
Wind Chill: 81°   Ceiling: Unl
Heat Index: 87°   Visibility: 10mi
Dew Point: 75°   Wind: 6mph
Humidity: 82%   Direction: 90°E
Pressure: 29.77"   Gusts: NA
Location:  13.3°N, 144.66°E
Report Text: PGUM 310754Z 09005KT 10SM FEW018 SCT070 27/24 A2977 RMK AO2 SLP073 T02720239
Loading
Personal Weather Stations






























Interactive Weather Map
Tropical Storm Tracking
New forecast layout! Learn more

10-Day Weather Forecast

Advertisements
Track Severe Weather on mobile